Latest Weather Observations for Cerberus

IDV60901

Issued at 10:35 am EST Tuesday 29 July 2014 (issued every 10 minutes, with the page automatically refreshed every 10 minutes)

About weather observations | Map of Melbourne area stations | Latest observations for Melbourne area | Other Formats
Station Details ID: 086361 Name: CERBERUS Lat: -38.36 Lon: 145.18 Height: 12.69 m
Data from the previous 72 hours. | See also: Recent months at Cerberus
Date/Time
EST
Tmp

°C
App
Tmp
°C
Dew
Point
°C
Rel
Hum
%
Delta-T

°C
Wind Press
QNH
hPa
Press
MSL
hPa
Rain
since
9 am
mm
Dir
 
Spd
km/h
Gust
km/h
Spd
kts
Gust
kts
29/10:30am 13.3 8.1 7.1 66 3.0 N 24 44 13 24 1006.7 - 0.0
29/10:00am 13.0 7.7 7.0 67 2.9 N 24 48 13 26 1006.5 1006.6 0.0
29/09:30am 13.0 7.7 7.0 67 2.9 N 24 48 13 26 1006.8 - 0.0
29/09:18am 12.8 6.7 6.8 67 2.9 NNW 28 46 15 25 1006.9 - 0.0
29/09:00am 12.9 7.2 6.9 67 2.9 NNW 26 44 14 24 1007.3 1007.4 0.0
29/08:30am 12.4 8.1 6.9 69 2.6 N 19 37 10 20 1007.8 - 0.0
29/08:00am 12.4 7.5 6.9 69 2.6 NNW 22 37 12 20 1008.1 1008.2 0.0
29/07:30am 12.3 7.8 6.8 69 2.6 N 20 33 11 18 1007.4 - 0.0
29/07:05am 12.5 5.7 6.8 68 2.7 NNW 32 50 17 27 1006.8 - 0.0
29/07:00am 12.7 6.3 7.0 68 2.8 NNW 30 46 16 25 1006.9 1007.0 0.0
29/06:30am 12.6 6.6 7.1 69 2.7 NNW 28 48 15 26 1006.9 - 0.0
29/06:00am 12.2 6.2 6.9 70 2.5 N 28 48 15 26 1006.9 1007.0 0.0
29/05:30am 12.2 6.2 6.9 70 2.5 NNW 28 48 15 26 1006.9 - 0.0
29/05:00am 12.3 7.0 7.0 70 2.6 NNW 24 44 13 24 1007.4 1007.5 0.0
29/04:30am 12.6 7.4 7.1 69 2.7 NNW 24 56 13 30 1007.4 - 0.0
29/04:00am 12.7 7.5 7.2 69 2.7 N 24 44 13 24 1007.5 1007.6 0.0
29/03:30am 12.6 7.4 7.1 69 2.7 N 24 41 13 22 1007.8 - 0.0
29/03:00am 12.7 7.1 7.0 68 2.8 N 26 39 14 21 1008.1 1008.2 0.0
29/02:30am 12.7 7.1 7.0 68 2.8 N 26 44 14 24 1008.1 - 0.0
29/02:00am 12.6 8.7 7.1 69 2.7 N 17 32 9 17 1009.0 1009.1 0.0
29/01:30am 12.6 9.1 7.1 69 2.7 N 15 32 8 17 1009.5 - 0.0
29/01:00am 12.7 9.2 7.4 70 2.6 N 15 32 8 17 1009.9 1010.0 0.0
29/12:30am 12.8 9.3 7.3 69 2.7 N 15 30 8 16 1010.4 - 0.0
29/12:00am 13.0 8.7 7.0 67 2.9 N 19 37 10 20 1010.8 1010.9 0.0
 
Date/Time
EST
Tmp

°C
App
Tmp
°C
Dew
Point
°C
Rel
Hum
%
Delta-T

°C
Wind Press
QNH
hPa
Press
MSL
hPa
Rain
since
9 am
mm
Dir
 
Spd
km/h
Gust
km/h
Spd
kts
Gust
kts
28/11:30pm 13.1 8.8 6.9 66 3.0 N 19 37 10 20 1010.9 - 0.0
28/11:00pm 13.3 8.8 7.1 66 3.0 N 20 33 11 18 1011.2 1011.3 0.0
28/10:30pm 13.3 8.5 7.3 67 2.9 N 22 39 12 21 1011.3 - 0.0
28/10:00pm 13.4 9.0 7.2 66 3.0 N 20 32 11 17 1011.4 1011.5 0.0
28/09:30pm 13.6 9.2 7.4 66 3.0 N 20 33 11 18 1011.2 - 0.0
28/09:00pm 13.8 9.4 7.6 66 3.1 N 20 37 11 20 1011.1 1011.2 0.0
28/08:30pm 13.8 10.4 7.6 66 3.0 N 15 28 8 15 1011.4 - 0.0
28/08:00pm 13.6 10.1 7.4 66 3.0 N 15 30 8 16 1011.5 1011.6 0.0
28/07:30pm 13.5 10.5 7.5 67 2.9 N 13 20 7 11 1011.4 - 0.0
28/07:00pm 13.8 10.3 7.3 65 3.2 N 15 28 8 15 1011.3 1011.4 0.0
28/06:30pm 14.1 10.2 7.2 63 3.4 NNW 17 32 9 17 1011.0 - 0.0
28/06:00pm 14.8 10.3 7.1 60 3.8 NW 20 32 11 17 1010.9 1011.0 0.0
28/05:30pm 13.9 10.4 7.2 64 3.3 NNW 15 28 8 15 1010.6 - 0.0
28/05:00pm 14.5 10.7 7.5 63 3.5 NNW 17 37 9 20 1010.6 1010.7 0.0
28/04:30pm 15.2 11.0 7.5 60 3.8 NNW 19 33 10 18 1010.9 - 0.0
28/04:00pm 15.6 11.2 7.4 58 4.1 NW 20 30 11 16 1011.2 1011.3 0.0
28/03:30pm 16.4 11.9 6.8 53 4.7 NNW 20 35 11 19 1010.7 - 0.0
28/03:00pm 16.6 11.7 6.7 52 4.9 NNW 22 37 12 20 1010.4 1010.5 0.0
28/02:30pm 16.8 12.2 6.6 51 5.0 NNW 20 37 11 20 1010.7 - 0.0
28/02:00pm 16.8 12.3 6.3 50 5.1 NNW 19 32 10 17 1011.2 1011.3 0.0
28/01:30pm 16.4 11.7 6.0 50 5.0 NNW 20 35 11 19 1011.5 - 0.0
28/01:00pm 16.0 11.3 6.2 52 4.8 NNW 20 37 11 20 1011.9 1012.0 0.0
28/12:30pm 16.0 11.6 6.4 53 4.7 NNW 19 33 10 18 1012.8 - 0.0
28/12:00pm 15.5 10.9 6.5 55 4.4 NNW 20 35 11 19 1013.4 1013.5 0.0
28/11:30am 15.1 10.6 6.1 55 4.3 NNW 19 33 10 18 1013.9 - 0.0
28/11:00am 14.7 9.9 5.8 55 4.2 NNW 20 37 11 20 1014.1 1014.1 0.0
28/10:30am 14.4 9.2 5.5 55 4.2 NNW 22 39 12 21 1014.4 - 0.0
28/10:00am 14.0 9.8 5.6 57 4.0 N 17 33 9 18 1014.6 1014.6 0.0
28/09:30am 13.4 10.3 5.6 59 3.7 N 11 22 6 12 1014.8 - 0.0
28/09:00am 12.6 9.9 5.8 63 3.2 N 9 17 5 9 1014.9 1014.9 0.0
28/08:30am 11.7 9.0 5.6 66 2.8 N 9 20 5 11 1015.1 - 0.0
28/08:00am 11.3 8.1 5.2 66 2.8 N 11 19 6 10 1015.3 1015.3 0.0
28/07:30am 11.2 7.5 4.7 64 2.9 NNW 13 30 7 16 1015.4 - 0.0
28/07:00am 11.4 7.7 4.6 63 3.1 NNW 13 26 7 14 1015.5 1015.5 0.0
28/06:30am 11.4 7.9 5.3 66 2.8 N 13 26 7 14 1015.2 - 0.0
28/06:00am 11.1 8.0 5.4 68 2.6 N 11 19 6 10 1015.3 1015.3 0.0
28/05:30am 11.0 7.5 5.5 69 2.5 N 13 22 7 12 1015.4 - 0.0
28/05:00am 11.5 6.9 5.6 67 2.7 N 19 28 10 15 1015.5 1015.5 0.0
28/04:30am 11.7 7.1 5.8 67 2.7 N 19 28 10 15 1015.5 - 0.0
28/04:00am 12.1 7.9 5.9 66 2.9 N 17 30 9 16 1015.8 1015.8 0.0
28/03:30am 11.9 8.2 6.2 68 2.7 N 15 26 8 14 1016.0 - 0.0
28/03:00am 12.0 7.0 6.3 68 2.7 N 22 35 12 19 1016.1 1016.1 0.0
28/02:30am 11.9 6.9 6.4 69 2.6 N 22 37 12 20 1016.2 - 0.0
28/02:00am 12.1 7.1 6.4 68 2.7 N 22 33 12 18 1016.5 1016.5 0.0
28/01:30am 12.2 7.2 6.5 68 2.7 N 22 39 12 21 1016.6 - 0.0
28/01:00am 12.3 8.3 6.8 69 2.6 N 17 32 9 17 1016.9 1016.9 0.0
28/12:30am 12.4 8.1 6.9 69 2.6 N 19 30 10 16 1017.5 - 0.0
28/12:00am 12.5 8.2 7.2 70 2.6 NNW 19 33 10 18 1017.7 1017.7 0.0
 
Date/Time
EST
Tmp

°C
App
Tmp
°C
Dew
Point
°C
Rel
Hum
%
Delta-T

°C
Wind Press
QNH
hPa
Press
MSL
hPa
Rain
since
9 am
mm
Dir
 
Spd
km/h
Gust
km/h
Spd
kts
Gust
kts
27/11:30pm 12.5 8.1 7.4 71 2.5 N 20 39 11 21 1017.6 - 0.0
27/11:00pm 12.4 8.6 7.5 72 2.4 N 17 35 9 19 1017.9 1017.9 0.0
27/10:30pm 12.4 9.0 7.7 73 2.3 N 15 30 8 16 1018.6 - 0.0
27/10:00pm 12.3 9.3 7.6 73 2.3 N 13 22 7 12 1018.9 1018.9 0.0
27/09:30pm 12.5 9.5 7.8 73 2.3 N 13 24 7 13 1019.4 - 0.0
27/09:00pm 12.6 9.6 7.7 72 2.4 N 13 22 7 12 1019.4 1019.4 0.0
27/08:30pm 12.7 9.0 7.8 72 2.4 N 17 30 9 16 1019.3 - 0.0
27/08:00pm 12.4 8.9 7.3 71 2.5 N 15 24 8 13 1019.6 1019.6 0.0
27/07:30pm 11.6 9.5 6.7 72 2.3 N 7 13 4 7 1020.0 - 0.0
27/07:00pm 12.1 10.0 6.8 70 2.5 N 7 13 4 7 1020.0 1020.0 0.0
27/06:30pm 12.1 10.0 6.6 69 2.6 N 7 11 4 6 1019.8 - 0.0
27/06:00pm 12.7 10.6 6.5 66 2.9 N 7 15 4 8 1019.5 1019.5 0.0
27/05:30pm 13.4 11.3 6.5 63 3.3 N 7 15 4 8 1019.4 - 0.0
27/05:00pm 14.0 10.5 7.1 63 3.4 NNW 15 22 8 12 1019.6 1019.6 0.0
27/04:30pm 13.8 11.4 7.1 64 3.3 N 9 13 5 7 1019.9 - 0.0
27/04:00pm 14.4 11.3 7.2 62 3.5 NW 13 19 7 10 1020.0 1020.0 0.0
27/03:30pm 14.7 12.0 7.5 62 3.6 NW 11 22 6 12 1020.3 - 0.0
27/03:00pm 14.7 12.1 7.7 63 3.5 NNW 11 19 6 10 1020.2 1020.2 0.0
27/02:30pm 15.5 12.6 8.0 61 3.8 NNW 13 20 7 11 1019.9 - 0.0
27/02:00pm 14.8 11.0 7.6 62 3.6 NNW 17 28 9 15 1020.1 1020.1 0.0
27/01:30pm 14.7 10.6 7.7 63 3.5 NNW 19 33 10 18 1020.2 - 0.0
27/01:00pm 14.8 9.6 7.4 61 3.6 NNW 24 39 13 21 1020.6 1020.6 0.0
27/12:30pm 15.0 11.6 7.8 62 3.6 NNW 15 26 8 14 1021.3 - 0.0
27/12:00pm 13.9 10.4 7.0 63 3.3 NNW 15 26 8 14 1021.9 1021.9 0.0
27/11:30am 13.9 10.6 7.9 67 3.0 N 15 24 8 13 1022.5 - 0.0
27/11:00am 12.9 10.8 8.2 73 2.3 NNW 9 17 5 9 1023.2 1023.2 0.0
27/10:30am 12.0 9.9 8.1 77 1.9 NNW 9 17 5 9 1023.7 - 0.0
27/10:00am 11.6 10.0 8.8 83 1.4 NNW 7 15 4 8 1024.2 1024.2 0.0
27/09:30am 10.1 8.5 8.2 88 0.9 NNW 6 9 3 5 1024.5 - 0.0
27/09:00am 9.2 7.9 7.6 90 0.8 NNW 4 6 2 3 1024.4 1024.4 0.2
27/08:30am 8.7 6.9 7.2 90 0.7 NNW 6 7 3 4 1024.5 - 0.2
27/08:00am 8.5 6.5 7.1 91 0.7 NNW 7 9 4 5 1024.5 1024.5 0.2
27/07:30am 8.2 5.8 6.8 91 0.6 NNW 9 13 5 7 1024.2 - 0.2
27/07:00am 8.2 5.7 6.7 90 0.7 NNW 9 15 5 8 1024.1 1024.1 0.2
27/06:30am 8.2 6.1 6.7 90 0.7 NNW 7 11 4 6 1023.9 - 0.2
27/06:00am 8.3 5.9 6.8 90 0.7 NNW 9 19 5 10 1023.7 1023.7 0.2
27/05:30am 7.8 6.2 6.3 90 0.7 NW 4 6 2 3 1023.8 - 0.2
27/05:00am 7.8 6.1 6.1 89 0.8 NW 4 6 2 3 1023.9 1023.9 0.2
27/04:30am 8.1 5.9 6.4 89 0.8 NNW 7 13 4 7 1023.9 - 0.2
27/04:00am 8.5 6.4 6.8 89 0.8 NW 7 15 4 8 1024.0 1024.0 0.0
27/03:30am 8.8 6.8 6.9 88 0.9 NNW 7 13 4 7 1024.2 - 0.0
27/03:00am 9.4 7.1 7.5 88 0.9 NW 9 15 5 8 1024.4 1024.4 0.0
27/02:30am 9.6 7.4 7.7 88 0.9 NW 9 15 5 8 1024.3 - 0.0
27/02:00am 10.2 8.6 8.1 87 1.0 NW 6 11 3 6 1024.3 1024.3 0.0
27/01:30am 11.0 9.4 8.9 87 1.0 NW 7 13 4 7 1024.4 - 0.0
27/01:00am 11.3 9.8 9.2 87 1.0 NW 7 13 4 7 1024.4 1024.4 0.0
27/12:30am 11.4 9.9 9.3 87 1.1 NW 7 13 4 7 1024.7 - 0.0
27/12:00am 11.2 9.7 9.1 87 1.0 WNW 7 15 4 8 1024.8 1024.8 0.0
 
Date/Time
EST
Tmp

°C
App
Tmp
°C
Dew
Point
°C
Rel
Hum
%
Delta-T

°C
Wind Press
QNH
hPa
Press
MSL
hPa
Rain
since
9 am
mm
Dir
 
Spd
km/h
Gust
km/h
Spd
kts
Gust
kts
26/11:30pm 11.7 10.5 9.6 87 1.1 WNW 6 7 3 4 1024.9 - 0.0
26/11:00pm 11.9 10.8 10.0 88 1.0 W 6 11 3 6 1024.8 1024.8 0.0
26/10:30pm 11.8 10.7 9.9 88 1.0 W 6 11 3 6 1024.9 - 0.0
26/10:00pm 11.9 10.6 10.0 88 1.0 W 7 11 4 6 1024.9 1024.9 0.0
26/09:30pm 11.9 10.6 10.1 89 0.9 W 7 11 4 6 1024.8 - 0.0
26/09:00pm 12.0 10.4 10.2 89 0.9 WNW 9 15 5 8 1024.6 1024.6 0.0
26/08:30pm 11.9 9.9 10.1 89 0.9 WNW 11 17 6 9 1024.3 - 0.0
26/08:00pm 11.7 10.0 9.9 89 0.9 W 9 15 5 8 1024.1 1024.1 0.0
26/07:30pm 11.5 9.4 9.8 89 0.9 WNW 11 15 6 8 1024.0 - 0.0
26/07:00pm 11.7 10.0 9.9 89 0.9 WNW 9 15 5 8 1023.8 1023.8 0.0
26/06:30pm 12.1 9.7 10.2 88 1.0 WNW 13 19 7 10 1023.6 - 0.0
26/06:00pm 12.2 9.9 10.3 88 1.0 WNW 13 19 7 10 1023.3 1023.3 0.0
26/05:30pm 12.2 10.2 10.1 87 1.1 WNW 11 17 6 9 1023.0 - 0.0
26/05:00pm 12.6 10.3 10.3 86 1.2 WNW 13 19 7 10 1022.8 1022.8 0.0
26/04:30pm 12.8 10.1 10.3 85 1.3 WNW 15 22 8 12 1022.6 - 0.0
26/04:00pm 13.0 10.4 10.7 86 1.2 WNW 15 22 8 12 1022.4 1022.4 0.0
26/03:30pm 13.2 10.2 10.6 84 1.4 WNW 17 28 9 15 1022.1 - 0.0
26/03:00pm 13.3 10.3 10.5 83 1.5 W 17 28 9 15 1021.9 1021.9 0.0
26/02:30pm 13.3 9.9 10.7 84 1.4 WNW 19 30 10 16 1021.7 - 0.0
26/02:00pm 13.0 10.0 10.5 85 1.3 WNW 17 26 9 14 1021.5 1021.5 0.0
26/01:30pm 12.9 9.4 10.3 84 1.3 WNW 19 28 10 15 1021.5 - 0.0
26/01:00pm 13.4 9.7 10.0 80 1.7 WNW 20 28 11 15 1021.6 1021.6 0.0
26/12:30pm 13.7 10.2 10.3 80 1.8 WNW 19 30 10 16 1021.7 - 0.0
26/12:00pm 13.1 9.3 9.9 81 1.6 WNW 20 28 11 15 1022.0 1022.0 0.0
26/11:30am 12.6 8.8 9.8 83 1.4 WNW 20 32 11 17 1022.1 - 0.0
26/11:00am 12.5 9.3 9.9 84 1.3 WNW 17 26 9 14 1022.3 1022.3 0.0

Latest Capital City Observations: Canberra | Sydney | Melbourne | Brisbane | Adelaide | Perth | Hobart | Darwin

Other Formats:

Comma delimited format used in spreadsheet applications
http://www.bom.gov.au/fwo/IDV60901/IDV60901.94898.axf

JavaScript Object Notation format (JSON) in row-major order
http://www.bom.gov.au/fwo/IDV60901/IDV60901.94898.json